Last 24 Hours

Thomas Mountain

10 Minute Data | America/Los_Angeles
as of 9/4/26 5:32 PM PDT
Date & Time Temp (°F) Dew Pt (°F) RH (%) Wind Spd (mph) Wind Dir (°) Wind Gust (mph) Wind Gst Dir (°) Daily Max Temp (°F) Daily Min Temp (°F)
9/4/26 - 1730 71.7 45.2 39 11.0 SW | 236 18.8 WSW | 241 75.8 55.6
9/4/26 - 1720 71.2 44.4 38 10.5 WSW | 249 19.1 WSW | 246 75.8 55.6
9/4/26 - 1710 72.8 43.9 36 12.4 WSW | 240 23.1 WSW | 241 75.8 55.6
9/4/26 - 1700 71.6 43.4 36 10.1 WSW | 255 18.4 WSW | 239 75.8 55.6
9/4/26 - 1650 73.9 42.9 33 10.1 WSW | 247 18.7 WSW | 257 75.8 55.6
9/4/26 - 1640 72.7 42.5 34 9.8 WSW | 242 20.0 WSW | 242 75.8 55.6
9/4/26 - 1630 72.8 42.2 33 12.6 WSW | 251 25.1 WSW | 239 75.8 55.6
9/4/26 - 1620 73.3 41.8 32 12.8 WSW | 240 20.8 WSW | 237 75.8 55.6
9/4/26 - 1610 73.6 39.7 29 13.8 WSW | 238 20.8 WSW | 245 75.8 55.6
9/4/26 - 1600 74.4 38.6 27 12.0 SW | 236 18.6 SSW | 205 75.8 55.6
9/4/26 - 1550 74.4 40.3 29 12.4 SW | 231 19.4 SW | 218 75.8 55.6
9/4/26 - 1540 73.8 40.8 30 10.6 WSW | 248 19.5 WSW | 240 75.8 55.6
9/4/26 - 1530 73.1 39.8 30 12.8 W | 259 22.4 W | 259 75.8 55.6
9/4/26 - 1520 73.4 39.8 30 12.2 WSW | 248 21.0 WSW | 246 75.8 55.6
9/4/26 - 1510 73.7 38.6 28 13.5 WSW | 239 22.7 SW | 230 75.8 55.6
9/4/26 - 1500 74.3 37.2 26 13.6 SW | 229 24.0 SW | 226 75.8 55.6
9/4/26 - 1450 74.4 36.8 26 13.8 SW | 234 23.9 SW | 228 75.8 55.6
9/4/26 - 1440 74.9 35.6 24 14.2 WSW | 238 22.1 WSW | 246 75.8 55.6
9/4/26 - 1430 74.2 34.6 24 13.0 WSW | 249 21.6 WSW | 243 75.5 55.6
9/4/26 - 1420 74.0 34.3 23 14.6 WSW | 250 22.7 SW | 232 75.5 55.6
9/4/26 - 1410 74.0 35.7 25 14.2 WSW | 245 22.1 SW | 233 75.5 55.6
9/4/26 - 1400 74.6 35.7 24 14.0 WSW | 239 22.6 WSW | 247 75.5 55.6
9/4/26 - 1350 74.1 34.7 24 12.5 WSW | 245 21.7 WSW | 245 75.5 55.6
9/4/26 - 1340 74.4 34.4 23 11.8 SW | 231 20.6 SW | 218 75.2 55.6
9/4/26 - 1330 73.4 34.4 24 11.8 WSW | 249 21.6 WSW | 240 74.6 55.6
9/4/26 - 1320 72.9 33.6 24 13.1 WSW | 247 21.0 WSW | 245 74.6 55.6
9/4/26 - 1310 73.3 29.0 19 9.6 WSW | 247 17.8 WSW | 240 73.9 55.6
9/4/26 - 1300 72.9 26.1 17 12.3 WSW | 243 18.6 SW | 220 73.8 55.6
9/4/26 - 1250 72.0 30.8 22 12.8 WSW | 238 20.5 WSW | 242 73.7 55.6
9/4/26 - 1240 72.9 28.8 19 11.6 WSW | 238 21.0 SW | 229 73.7 55.6
9/4/26 - 1230 71.6 29.7 21 12.0 WSW | 248 19.5 WSW | 247 73.5 55.6
9/4/26 - 1220 71.4 29.4 21 12.6 WSW | 247 19.9 WSW | 244 73.5 55.6
9/4/26 - 1210 71.5 31.7 23 12.6 WSW | 242 22.2 WSW | 240 73.5 55.6
9/4/26 - 1200 72.8 31.7 22 13.1 SW | 231 22.2 SW | 229 73.5 55.6
9/4/26 - 1150 71.2 30.2 22 12.8 SW | 225 23.8 SW | 221 72.5 55.6
9/4/26 - 1140 71.4 30.7 22 12.2 WSW | 244 18.0 SW | 229 72.5 55.6
9/4/26 - 1130 71.2 31.8 23 12.5 SW | 230 18.7 SW | 224 72.5 55.6
9/4/26 - 1120 71.4 31.3 23 12.2 SW | 228 20.0 WSW | 241 72.5 55.6
9/4/26 - 1110 71.4 30.0 22 11.8 WSW | 237 21.6 SW | 219 72.3 55.6
9/4/26 - 1100 71.3 26.9 19 11.5 SW | 231 18.2 SW | 233 72.2 55.6
9/4/26 - 1050 71.1 26.9 19 9.5 SW | 224 17.6 WSW | 255 72.2 55.6
9/4/26 - 1040 70.8 27.8 20 11.3 SW | 220 19.1 SW | 220 71.2 55.6
9/4/26 - 1030 70.5 28.4 21 9.5 SW | 216 16.4 S | 191 71.0 55.6
9/4/26 - 1020 70.2 27.8 20 8.9 WSW | 241 14.7 SW | 232 71.0 55.6
9/4/26 - 1010 69.8 28.1 21 8.9 SW | 230 14.2 SW | 224 70.7 55.6
9/4/26 - 1000 69.8 27.4 20 8.2 SW | 221 15.0 SW | 220 70.7 55.6
9/4/26 - 0950 68.6 25.5 20 7.6 SSW | 207 11.4 SSW | 211 69.6 55.6
9/4/26 - 0940 67.6 24.4 19 4.9 WSW | 246 9.9 W | 264 68.3 55.6
9/4/26 - 0930 67.0 23.3 19 6.4 SW | 217 11.1 SW | 227 68.3 55.6
9/4/26 - 0920 67.7 25.3 20 5.2 SSW | 205 10.0 SSW | 206 68.3 55.6
9/4/26 - 0910 67.7 26.4 21 3.7 SSW | 204 6.4 SW | 231 68.3 55.6
9/4/26 - 0900 68.0 31.3 25 1.9 SSW | 197 5.5 ESE | 102 68.3 55.6
9/4/26 - 0850 66.8 31.0 26 3.0 ESE | 107 6.7 E | 85 68.0 55.6
9/4/26 - 0840 66.5 29.0 24 1.9 NE | 51 5.2 E | 93 67.0 55.6
9/4/26 - 0830 65.2 28.5 25 3.4 NE | 41 7.6 ENE | 62 66.5 55.6
9/4/26 - 0820 64.1 25.5 23 5.0 NE | 45 8.1 NE | 48 64.5 55.6
9/4/26 - 0810 63.4 24.1 22 3.3 NE | 45 6.6 NE | 47 64.0 55.6
9/4/26 - 0800 62.3 23.3 22 4.6 NE | 46 6.3 NE | 44 62.7 55.6
9/4/26 - 0750 62.0 24.2 23 4.4 NE | 50 6.3 ENE | 57 62.2 55.6
9/4/26 - 0740 61.5 22.2 22 4.7 NE | 48 6.1 NE | 44 61.8 55.6
9/4/26 - 0730 60.8 23.7 24 3.5 NE | 44 5.0 NE | 41 61.3 55.6
9/4/26 - 0720 60.9 26.0 26 3.3 ENE | 60 5.0 NE | 52 61.3 55.6
9/4/26 - 0710 60.5 28.6 30 1.3 NE | 53 2.8 NE | 54 60.9 55.6
9/4/26 - 0700 59.1 27.7 30 1.5 NE | 48 2.5 NE | 38 60.9 55.6
9/4/26 - 0650 57.9 26.9 30 2.8 NE | 34 4.1 NNE | 24 60.9 55.6
9/4/26 - 0640 57.6 28.0 32 3.7 NNE | 15 5.5 N | 7 60.9 55.6
9/4/26 - 0630 57.9 29.5 34 4.6 N | 351 6.1 N | 3 60.9 55.6
9/4/26 - 0620 57.3 30.5 36 5.8 NNW | 348 7.3 N | 5 60.9 55.6
9/4/26 - 0610 57.2 31.0 37 5.9 N | 354 8.4 N | 3 60.9 55.6
9/4/26 - 0600 57.9 32.2 38 5.3 N | 349 6.6 N | 352 60.9 55.6
9/4/26 - 0550 56.8 32.6 40 5.8 NNW | 346 7.1 NNW | 346 60.9 55.6
9/4/26 - 0540 56.4 33.4 42 5.6 N | 1 7.7 N | 5 60.9 55.6
9/4/26 - 0530 56.7 34.3 43 4.7 N | 4 5.8 N | 1 60.9 55.6
9/4/26 - 0520 57.6 34.7 42 3.7 NNE | 12 6.9 N | 0 60.9 55.6
9/4/26 - 0510 59.2 34.1 39 2.5 NW | 324 4.2 NW | 310 60.9 55.6
9/4/26 - 0500 59.3 33.6 38 3.4 WNW | 290 7.7 W | 274 60.9 55.6
9/4/26 - 0450 59.4 34.1 38 3.6 WNW | 289 6.0 NW | 311 60.9 55.6
9/4/26 - 0440 59.8 34.3 38 4.5 WNW | 287 8.8 W | 275 60.9 55.6
9/4/26 - 0430 59.2 34.7 40 4.1 WNW | 286 7.7 NW | 308 60.9 55.6
9/4/26 - 0420 57.5 34.9 42 4.2 NNW | 342 7.5 WNW | 282 60.9 55.6
9/4/26 - 0410 57.2 34.8 43 5.0 N | 360 7.5 N | 0 60.9 55.6
9/4/26 - 0400 57.9 34.4 41 5.6 N | 350 8.3 NNW | 329 60.9 55.6
9/4/26 - 0350 59.9 33.0 36 5.2 NW | 323 9.7 NW | 325 60.9 55.6
9/4/26 - 0340 60.0 32.2 35 4.4 NW | 312 8.1 NW | 308 60.9 55.6
9/4/26 - 0330 59.8 30.4 33 3.7 NW | 308 7.6 NW | 326 60.9 55.6
9/4/26 - 0320 59.8 27.5 29 3.9 NW | 316 8.2 WNW | 295 60.9 55.6
9/4/26 - 0310 60.5 26.1 27 4.0 WNW | 296 10.4 W | 275 60.9 55.6
9/4/26 - 0300 60.7 25.5 26 6.6 WNW | 284 11.8 WNW | 286 60.9 55.6
9/4/26 - 0250 59.5 25.6 27 4.0 WNW | 302 8.8 W | 277 60.3 55.6
9/4/26 - 0240 58.9 29.9 33 3.5 NW | 323 7.9 WNW | 298 59.8 55.6
9/4/26 - 0230 59.4 29.3 32 2.7 NW | 325 8.1 WNW | 288 59.8 55.6
9/4/26 - 0220 59.5 30.3 33 3.8 WNW | 296 8.0 WNW | 290 59.8 55.6
9/4/26 - 0210 58.1 35.1 42 3.6 NW | 315 8.4 W | 280 59.0 55.6
9/4/26 - 0200 57.9 39.1 50 4.2 N | 357 6.1 NNW | 348 58.8 55.6
9/4/26 - 0150 58.4 36.8 44 1.9 N | 352 3.8 N | 354 58.8 55.6
9/4/26 - 0140 56.8 42.3 58 4.5 N | 352 6.4 N | 350 57.5 55.6
9/4/26 - 0130 56.3 44.6 65 5.3 N | 359 7.7 N | 352 57.2 55.6
9/4/26 - 0120 56.4 43.9 63 6.3 NNE | 12 9.9 N | 3 57.2 55.6
9/4/26 - 0110 55.8 42.5 61 4.5 NNE | 12 7.4 NNE | 21 56.1 55.6
9/4/26 - 0100 56.8 41.5 56 5.6 N | 9 8.8 NNW | 333 74.2 55.7
9/4/26 - 0050 57.6 40.5 53 4.8 N | 358 10.2 NNW | 342 74.2 55.7
9/4/26 - 0040 60.1 40.5 48 2.4 NNW | 331 7.1 W | 266 74.2 55.7
9/4/26 - 0030 62.2 40.0 44 5.0 WSW | 258 9.7 WSW | 258 74.2 55.7
9/4/26 - 0020 62.3 40.2 44 7.7 W | 272 14.3 W | 279 74.2 55.7
9/4/26 - 0010 61.8 41.5 47 11.4 W | 277 17.5 WNW | 292 74.2 55.7
9/4/26 - 0000 59.8 43.2 54 7.3 W | 276 12.1 W | 266 74.2 55.7
9/3/26 - 2350 60.0 44.6 57 7.0 W | 272 9.9 W | 263 74.2 55.7
9/3/26 - 2340 59.6 44.3 57 4.8 W | 280 8.7 W | 274 74.2 55.7
9/3/26 - 2330 58.2 43.5 58 3.8 NW | 309 6.7 NNW | 329 74.2 55.7
9/3/26 - 2320 56.8 42.8 59 6.0 NNW | 342 7.7 NNW | 341 74.2 55.7
9/3/26 - 2310 56.0 43.3 62 4.9 N | 357 6.5 NNW | 344 74.2 55.7
9/3/26 - 2300 57.4 43.6 60 4.5 N | 10 5.8 NNE | 12 74.2 56.4
9/3/26 - 2250 58.6 44.1 58 2.0 NE | 34 5.5 N | 9 74.2 56.9
9/3/26 - 2240 58.8 44.2 58 0.8 N | 353 2.3 N | 354 74.2 56.9
9/3/26 - 2230 59.3 44.3 58 1.1 W | 262 2.8 W | 261 74.2 56.9
9/3/26 - 2220 59.6 43.9 56 1.0 W | 267 2.2 W | 266 74.2 56.9
9/3/26 - 2210 59.7 43.6 55 0.5 W | 278 1.5 WNW | 295 74.2 56.9
9/3/26 - 2200 58.6 44.0 58 2.3 NW | 310 5.3 N | 349 74.2 56.9
9/3/26 - 2150 57.2 45.6 65 4.3 N | 356 6.9 NNW | 342 74.2 56.9
9/3/26 - 2140 57.5 45.9 65 4.7 NE | 43 6.4 NE | 45 74.2 57.0
9/3/26 - 2130 57.9 45.4 63 4.1 NE | 43 6.2 NNE | 23 74.2 57.3
9/3/26 - 2120 58.3 45.4 62 5.2 N | 8 7.9 N | 0 74.2 57.3
9/3/26 - 2110 58.7 45.3 61 8.0 N | 3 12.1 NNE | 13 74.2 57.3
9/3/26 - 2100 58.6 44.4 59 9.0 N | 11 12.5 N | 11 74.2 57.3
9/3/26 - 2050 58.5 44.0 58 7.3 N | 3 13.2 N | 7 74.2 57.3
9/3/26 - 2040 59.3 44.5 58 6.8 NNE | 12 9.9 NNE | 12 74.2 57.3
9/3/26 - 2030 60.3 42.7 52 6.7 NNE | 26 9.1 NNE | 17 74.2 57.3
9/3/26 - 2020 62.6 40.5 44 2.2 N | 5 7.6 NE | 40 74.2 57.3
9/3/26 - 2010 62.8 41.0 45 3.1 NW | 325 6.0 NNW | 339 74.2 57.3
9/3/26 - 2000 62.1 43.3 50 5.7 NNW | 342 7.3 NNW | 338 74.2 57.3
9/3/26 - 1950 61.8 44.1 52 6.0 NNW | 346 9.0 NNW | 345 74.2 57.3
9/3/26 - 1940 62.0 44.3 52 4.7 NNE | 22 7.8 N | 352 74.2 57.3
9/3/26 - 1930 62.4 45.0 53 2.0 ENE | 62 4.1 NE | 48 74.2 57.3
9/3/26 - 1920 62.7 46.6 56 0.9 SSW | 209 3.2 SSW | 199 74.2 57.3
9/3/26 - 1910 65.1 43.4 45 4.3 SW | 235 6.5 SW | 218 74.2 57.3
9/3/26 - 1900 66.1 41.9 41 5.3 WSW | 248 8.3 WSW | 249 74.2 57.3
9/3/26 - 1850 66.7 41.3 40 5.8 WSW | 254 9.6 WSW | 253 74.2 57.3
9/3/26 - 1840 67.2 41.0 38 7.1 WSW | 255 11.4 WSW | 253 74.2 57.3
9/3/26 - 1830 67.6 40.2 37 8.4 WSW | 251 11.2 WSW | 252 74.2 57.3
9/3/26 - 1820 68.2 40.1 36 9.0 WSW | 246 13.6 SW | 231 74.2 57.3
9/3/26 - 1810 68.1 41.8 38 9.8 WSW | 243 16.2 WSW | 237 74.2 57.3
9/3/26 - 1800 68.4 42.2 38 9.8 WSW | 252 16.8 SW | 230 74.2 57.3
9/3/26 - 1750 69.2 41.9 37 9.2 WSW | 248 16.2 WSW | 257 74.2 57.3
9/3/26 - 1740 69.5 41.5 36 9.6 WSW | 252 16.2 WSW | 243 74.2 57.3
9/3/26 - 1730 69.7 40.6 35 10.1 WSW | 250 19.0 WSW | 246 74.2 57.3
Max 74.9 46.6 65 14.6 - 25.1 - 75.8 57.3
Avg 64.6 35.9 37 7.1 - 12.0 - - -
Min 55.8 22.2 17 0.5 - 1.5 - 56.1 55.6